sensor_id;sensor_type;location;lat;lon;timestamp;P1;durP1;ratioP1;P2;durP2;ratioP2
21862;SDS011;11096;51.338;12.524;2023-02-28T00:00:48;4.25;;;2.42;;
21862;SDS011;11096;51.338;12.524;2023-02-28T00:03:14;5.20;;;2.75;;
21862;SDS011;11096;51.338;12.524;2023-02-28T00:05:39;4.93;;;2.65;;
21862;SDS011;11096;51.338;12.524;2023-02-28T00:08:06;4.28;;;2.28;;
21862;SDS011;11096;51.338;12.524;2023-02-28T00:10:32;4.32;;;2.58;;
21862;SDS011;11096;51.338;12.524;2023-02-28T00:13:05;3.67;;;2.38;;
21862;SDS011;11096;51.338;12.524;2023-02-28T00:15:31;3.95;;;2.17;;
21862;SDS011;11096;51.338;12.524;2023-02-28T00:17:58;2.78;;;2.00;;
21862;SDS011;11096;51.338;12.524;2023-02-28T00:20:23;3.38;;;2.33;;
21862;SDS011;11096;51.338;12.524;2023-02-28T00:22:49;5.50;;;2.45;;
21862;SDS011;11096;51.338;12.524;2023-02-28T00:25:17;4.28;;;2.67;;
21862;SDS011;11096;51.338;12.524;2023-02-28T00:27:45;2.80;;;2.22;;
21862;SDS011;11096;51.338;12.524;2023-02-28T00:30:12;6.07;;;2.20;;
21862;SDS011;11096;51.338;12.524;2023-02-28T00:32:40;3.25;;;2.17;;
21862;SDS011;11096;51.338;12.524;2023-02-28T00:35:06;4.47;;;2.58;;
21862;SDS011;11096;51.338;12.524;2023-02-28T00:37:32;4.55;;;2.35;;
21862;SDS011;11096;51.338;12.524;2023-02-28T00:39:58;4.22;;;2.45;;
21862;SDS011;11096;51.338;12.524;2023-02-28T00:42:24;5.68;;;2.72;;
21862;SDS011;11096;51.338;12.524;2023-02-28T00:44:50;6.68;;;2.75;;
21862;SDS011;11096;51.338;12.524;2023-02-28T00:47:16;4.80;;;2.67;;
21862;SDS011;11096;51.338;12.524;2023-02-28T00:49:41;3.17;;;2.30;;
21862;SDS011;11096;51.338;12.524;2023-02-28T00:52:07;7.28;;;2.95;;
21862;SDS011;11096;51.338;12.524;2023-02-28T00:54:32;5.90;;;2.53;;
21862;SDS011;11096;51.338;12.524;2023-02-28T00:56:58;3.95;;;2.45;;
21862;SDS011;11096;51.338;12.524;2023-02-28T00:59:24;5.40;;;2.90;;
21862;SDS011;11096;51.338;12.524;2023-02-28T01:01:50;3.75;;;2.60;;
21862;SDS011;11096;51.338;12.524;2023-02-28T01:04:15;6.28;;;2.60;;
21862;SDS011;11096;51.338;12.524;2023-02-28T01:06:41;7.10;;;2.72;;
21862;SDS011;11096;51.338;12.524;2023-02-28T01:09:06;4.35;;;2.80;;
21862;SDS011;11096;51.338;12.524;2023-02-28T01:11:33;6.65;;;3.00;;
21862;SDS011;11096;51.338;12.524;2023-02-28T01:13:59;6.55;;;2.55;;
21862;SDS011;11096;51.338;12.524;2023-02-28T01:16:25;5.78;;;2.78;;
21862;SDS011;11096;51.338;12.524;2023-02-28T01:18:51;4.90;;;2.85;;
21862;SDS011;11096;51.338;12.524;2023-02-28T01:21:18;6.25;;;2.85;;
21862;SDS011;11096;51.338;12.524;2023-02-28T01:23:46;5.18;;;2.97;;
21862;SDS011;11096;51.338;12.524;2023-02-28T01:26:16;4.45;;;2.63;;
21862;SDS011;11096;51.338;12.524;2023-02-28T01:28:44;5.00;;;2.13;;
21862;SDS011;11096;51.338;12.524;2023-02-28T01:31:10;4.55;;;2.38;;
21862;SDS011;11096;51.338;12.524;2023-02-28T01:33:36;3.88;;;2.38;;
21862;SDS011;11096;51.338;12.524;2023-02-28T01:36:12;6.45;;;2.75;;
21862;SDS011;11096;51.338;12.524;2023-02-28T01:38:39;3.90;;;2.30;;
21862;SDS011;11096;51.338;12.524;2023-02-28T01:41:06;3.33;;;2.08;;
21862;SDS011;11096;51.338;12.524;2023-02-28T01:46:22;5.65;;;2.53;;
21862;SDS011;11096;51.338;12.524;2023-02-28T01:48:53;3.67;;;2.30;;
21862;SDS011;11096;51.338;12.524;2023-02-28T01:54:31;4.95;;;2.45;;
21862;SDS011;11096;51.338;12.524;2023-02-28T01:57:06;3.38;;;2.40;;
21862;SDS011;11096;51.338;12.524;2023-02-28T01:59:43;3.75;;;1.98;;
21862;SDS011;11096;51.338;12.524;2023-02-28T02:02:21;4.60;;;2.13;;
21862;SDS011;11096;51.338;12.524;2023-02-28T02:04:53;3.55;;;2.50;;
21862;SDS011;11096;51.338;12.524;2023-02-28T02:07:21;3.15;;;2.25;;
21862;SDS011;11096;51.338;12.524;2023-02-28T02:10:01;4.80;;;2.45;;
21862;SDS011;11096;51.338;12.524;2023-02-28T02:15:25;3.72;;;2.15;;
21862;SDS011;11096;51.338;12.524;2023-02-28T02:17:52;4.75;;;2.50;;
21862;SDS011;11096;51.338;12.524;2023-02-28T02:26:09;5.35;;;2.53;;
21862;SDS011;11096;51.338;12.524;2023-02-28T02:37:26;4.93;;;2.63;;
21862;SDS011;11096;51.338;12.524;2023-02-28T02:40:04;5.07;;;2.22;;
21862;SDS011;11096;51.338;12.524;2023-02-28T02:43:16;4.05;;;2.63;;
21862;SDS011;11096;51.338;12.524;2023-02-28T02:45:42;6.03;;;2.03;;
21862;SDS011;11096;51.338;12.524;2023-02-28T02:48:15;3.90;;;2.53;;
21862;SDS011;11096;51.338;12.524;2023-02-28T02:50:44;4.97;;;2.83;;
21862;SDS011;11096;51.338;12.524;2023-02-28T02:53:13;4.40;;;2.45;;
21862;SDS011;11096;51.338;12.524;2023-02-28T02:55:43;3.83;;;2.63;;
21862;SDS011;11096;51.338;12.524;2023-02-28T02:58:18;4.85;;;2.58;;
21862;SDS011;11096;51.338;12.524;2023-02-28T03:00:53;5.55;;;2.70;;
21862;SDS011;11096;51.338;12.524;2023-02-28T03:03:22;5.00;;;3.03;;
21862;SDS011;11096;51.338;12.524;2023-02-28T03:05:54;3.90;;;2.55;;
21862;SDS011;11096;51.338;12.524;2023-02-28T03:08:21;3.97;;;2.17;;
21862;SDS011;11096;51.338;12.524;2023-02-28T03:10:51;7.90;;;2.80;;
21862;SDS011;11096;51.338;12.524;2023-02-28T03:15:57;4.35;;;2.60;;
21862;SDS011;11096;51.338;12.524;2023-02-28T03:20:58;2.88;;;2.00;;
21862;SDS011;11096;51.338;12.524;2023-02-28T03:23:51;4.22;;;2.70;;
21862;SDS011;11096;51.338;12.524;2023-02-28T03:26:19;6.07;;;2.40;;
21862;SDS011;11096;51.338;12.524;2023-02-28T03:29:05;4.03;;;2.35;;
21862;SDS011;11096;51.338;12.524;2023-02-28T03:31:45;4.68;;;2.47;;
21862;SDS011;11096;51.338;12.524;2023-02-28T03:34:19;4.57;;;2.25;;
21862;SDS011;11096;51.338;12.524;2023-02-28T03:36:52;2.97;;;2.25;;
21862;SDS011;11096;51.338;12.524;2023-02-28T03:39:22;4.28;;;2.75;;
21862;SDS011;11096;51.338;12.524;2023-02-28T03:41:52;3.78;;;2.30;;
21862;SDS011;11096;51.338;12.524;2023-02-28T03:44:26;3.47;;;2.20;;
21862;SDS011;11096;51.338;12.524;2023-02-28T03:47:00;4.05;;;2.55;;
21862;SDS011;11096;51.338;12.524;2023-02-28T03:49:34;4.20;;;2.60;;
21862;SDS011;11096;51.338;12.524;2023-02-28T03:52:06;4.22;;;2.45;;
21862;SDS011;11096;51.338;12.524;2023-02-28T03:54:34;6.97;;;2.70;;
21862;SDS011;11096;51.338;12.524;2023-02-28T03:59:39;3.53;;;2.42;;
21862;SDS011;11096;51.338;12.524;2023-02-28T04:02:09;5.15;;;2.67;;
21862;SDS011;11096;51.338;12.524;2023-02-28T04:04:34;3.58;;;2.45;;
21862;SDS011;11096;51.338;12.524;2023-02-28T04:07:02;4.13;;;2.58;;
21862;SDS011;11096;51.338;12.524;2023-02-28T04:09:29;4.45;;;2.45;;
21862;SDS011;11096;51.338;12.524;2023-02-28T04:11:55;4.40;;;2.40;;
21862;SDS011;11096;51.338;12.524;2023-02-28T04:14:21;5.53;;;2.80;;
21862;SDS011;11096;51.338;12.524;2023-02-28T04:16:46;4.07;;;2.58;;
21862;SDS011;11096;51.338;12.524;2023-02-28T04:19:12;6.40;;;2.65;;
21862;SDS011;11096;51.338;12.524;2023-02-28T04:21:40;4.80;;;2.92;;
21862;SDS011;11096;51.338;12.524;2023-02-28T04:24:09;4.07;;;2.83;;
21862;SDS011;11096;51.338;12.524;2023-02-28T04:26:39;3.58;;;2.30;;
21862;SDS011;11096;51.338;12.524;2023-02-28T04:29:06;5.63;;;2.55;;
21862;SDS011;11096;51.338;12.524;2023-02-28T04:31:32;4.25;;;2.60;;
21862;SDS011;11096;51.338;12.524;2023-02-28T04:33:59;4.78;;;2.72;;
21862;SDS011;11096;51.338;12.524;2023-02-28T04:36:25;3.65;;;2.67;;
21862;SDS011;11096;51.338;12.524;2023-02-28T04:38:51;5.30;;;2.65;;
21862;SDS011;11096;51.338;12.524;2023-02-28T04:41:16;5.20;;;2.75;;
21862;SDS011;11096;51.338;12.524;2023-02-28T04:43:42;5.30;;;2.33;;
21862;SDS011;11096;51.338;12.524;2023-02-28T04:46:08;4.40;;;2.20;;
21862;SDS011;11096;51.338;12.524;2023-02-28T04:48:35;5.05;;;2.47;;
21862;SDS011;11096;51.338;12.524;2023-02-28T04:51:02;6.57;;;3.05;;
21862;SDS011;11096;51.338;12.524;2023-02-28T04:53:30;4.93;;;2.75;;
21862;SDS011;11096;51.338;12.524;2023-02-28T04:55:56;3.83;;;2.63;;
21862;SDS011;11096;51.338;12.524;2023-02-28T04:58:22;4.57;;;2.50;;
21862;SDS011;11096;51.338;12.524;2023-02-28T05:00:52;3.45;;;2.55;;
21862;SDS011;11096;51.338;12.524;2023-02-28T05:03:18;4.78;;;3.08;;
21862;SDS011;11096;51.338;12.524;2023-02-28T05:05:45;5.78;;;2.70;;
21862;SDS011;11096;51.338;12.524;2023-02-28T05:08:11;7.78;;;2.90;;
21862;SDS011;11096;51.338;12.524;2023-02-28T05:10:37;5.20;;;2.47;;
21862;SDS011;11096;51.338;12.524;2023-02-28T05:13:02;6.90;;;2.53;;
21862;SDS011;11096;51.338;12.524;2023-02-28T05:15:27;4.13;;;2.70;;
21862;SDS011;11096;51.338;12.524;2023-02-28T05:17:53;4.13;;;2.50;;
21862;SDS011;11096;51.338;12.524;2023-02-28T05:20:19;4.70;;;2.67;;
21862;SDS011;11096;51.338;12.524;2023-02-28T05:22:45;5.25;;;2.95;;
21862;SDS011;11096;51.338;12.524;2023-02-28T05:25:16;7.13;;;2.88;;
21862;SDS011;11096;51.338;12.524;2023-02-28T05:27:43;4.22;;;3.00;;
21862;SDS011;11096;51.338;12.524;2023-02-28T05:30:09;5.22;;;3.10;;
21862;SDS011;11096;51.338;12.524;2023-02-28T05:32:38;9.07;;;3.30;;
21862;SDS011;11096;51.338;12.524;2023-02-28T05:35:07;5.38;;;3.05;;
21862;SDS011;11096;51.338;12.524;2023-02-28T05:37:34;5.38;;;2.72;;
21862;SDS011;11096;51.338;12.524;2023-02-28T05:40:00;7.65;;;2.72;;
21862;SDS011;11096;51.338;12.524;2023-02-28T05:42:26;6.40;;;3.08;;
21862;SDS011;11096;51.338;12.524;2023-02-28T05:44:51;5.30;;;2.90;;
21862;SDS011;11096;51.338;12.524;2023-02-28T05:47:17;4.05;;;2.72;;
21862;SDS011;11096;51.338;12.524;2023-02-28T05:49:42;4.50;;;2.70;;
21862;SDS011;11096;51.338;12.524;2023-02-28T05:52:08;4.70;;;2.85;;
21862;SDS011;11096;51.338;12.524;2023-02-28T05:54:33;7.90;;;3.42;;
21862;SDS011;11096;51.338;12.524;2023-02-28T05:56:58;7.40;;;3.33;;
21862;SDS011;11096;51.338;12.524;2023-02-28T05:59:24;6.00;;;3.22;;
21862;SDS011;11096;51.338;12.524;2023-02-28T06:01:50;6.60;;;3.20;;
21862;SDS011;11096;51.338;12.524;2023-02-28T06:04:17;8.05;;;3.30;;
21862;SDS011;11096;51.338;12.524;2023-02-28T06:06:47;7.95;;;3.30;;
21862;SDS011;11096;51.338;12.524;2023-02-28T06:09:14;7.38;;;3.55;;
21862;SDS011;11096;51.338;12.524;2023-02-28T06:11:40;6.28;;;2.88;;
21862;SDS011;11096;51.338;12.524;2023-02-28T06:14:07;5.57;;;3.20;;
21862;SDS011;11096;51.338;12.524;2023-02-28T06:16:33;5.40;;;3.45;;
21862;SDS011;11096;51.338;12.524;2023-02-28T06:19:00;4.47;;;3.28;;
21862;SDS011;11096;51.338;12.524;2023-02-28T06:21:27;6.85;;;3.83;;
21862;SDS011;11096;51.338;12.524;2023-02-28T06:23:53;9.70;;;3.75;;
21862;SDS011;11096;51.338;12.524;2023-02-28T06:26:19;8.05;;;4.63;;
21862;SDS011;11096;51.338;12.524;2023-02-28T06:28:45;12.20;;;4.15;;
21862;SDS011;11096;51.338;12.524;2023-02-28T06:31:11;9.23;;;4.18;;
21862;SDS011;11096;51.338;12.524;2023-02-28T06:33:39;10.18;;;3.28;;
21862;SDS011;11096;51.338;12.524;2023-02-28T06:36:06;8.20;;;3.58;;
21862;SDS011;11096;51.338;12.524;2023-02-28T06:38:32;6.05;;;4.05;;
21862;SDS011;11096;51.338;12.524;2023-02-28T06:41:00;11.38;;;4.60;;
21862;SDS011;11096;51.338;12.524;2023-02-28T06:43:27;7.80;;;3.85;;
21862;SDS011;11096;51.338;12.524;2023-02-28T06:45:54;9.15;;;3.97;;
21862;SDS011;11096;51.338;12.524;2023-02-28T06:48:21;9.52;;;3.72;;
21862;SDS011;11096;51.338;12.524;2023-02-28T06:50:46;7.13;;;3.70;;
21862;SDS011;11096;51.338;12.524;2023-02-28T06:53:12;8.15;;;4.75;;
21862;SDS011;11096;51.338;12.524;2023-02-28T06:55:38;10.70;;;4.28;;
21862;SDS011;11096;51.338;12.524;2023-02-28T06:58:04;10.57;;;4.13;;
21862;SDS011;11096;51.338;12.524;2023-02-28T07:00:42;9.30;;;4.40;;
21862;SDS011;11096;51.338;12.524;2023-02-28T07:03:09;6.35;;;3.80;;
21862;SDS011;11096;51.338;12.524;2023-02-28T07:05:35;7.60;;;3.45;;
21862;SDS011;11096;51.338;12.524;2023-02-28T07:08:02;8.13;;;3.55;;
21862;SDS011;11096;51.338;12.524;2023-02-28T07:10:29;8.05;;;3.85;;
21862;SDS011;11096;51.338;12.524;2023-02-28T07:12:55;6.70;;;3.55;;
21862;SDS011;11096;51.338;12.524;2023-02-28T07:15:20;4.82;;;2.70;;
21862;SDS011;11096;51.338;12.524;2023-02-28T07:17:46;6.53;;;3.30;;
21862;SDS011;11096;51.338;12.524;2023-02-28T07:20:11;5.68;;;3.00;;
21862;SDS011;11096;51.338;12.524;2023-02-28T07:22:37;10.13;;;3.25;;
21862;SDS011;11096;51.338;12.524;2023-02-28T07:25:03;5.82;;;2.80;;
21862;SDS011;11096;51.338;12.524;2023-02-28T07:27:30;5.82;;;3.25;;
21862;SDS011;11096;51.338;12.524;2023-02-28T07:29:55;5.85;;;3.17;;
21862;SDS011;11096;51.338;12.524;2023-02-28T07:32:21;5.22;;;2.92;;
21862;SDS011;11096;51.338;12.524;2023-02-28T07:34:46;4.07;;;2.83;;
21862;SDS011;11096;51.338;12.524;2023-02-28T07:37:12;6.63;;;2.80;;
21862;SDS011;11096;51.338;12.524;2023-02-28T07:39:37;6.80;;;3.28;;
21862;SDS011;11096;51.338;12.524;2023-02-28T07:42:06;8.10;;;3.40;;
21862;SDS011;11096;51.338;12.524;2023-02-28T07:44:35;8.02;;;3.25;;
21862;SDS011;11096;51.338;12.524;2023-02-28T07:47:05;6.20;;;3.75;;
21862;SDS011;11096;51.338;12.524;2023-02-28T07:49:34;10.20;;;3.47;;
21862;SDS011;11096;51.338;12.524;2023-02-28T07:52:03;9.02;;;3.17;;
21862;SDS011;11096;51.338;12.524;2023-02-28T07:54:29;7.35;;;3.55;;
21862;SDS011;11096;51.338;12.524;2023-02-28T07:56:55;6.38;;;3.60;;
21862;SDS011;11096;51.338;12.524;2023-02-28T07:59:20;5.95;;;3.00;;
21862;SDS011;11096;51.338;12.524;2023-02-28T08:01:46;5.15;;;2.83;;
21862;SDS011;11096;51.338;12.524;2023-02-28T08:04:11;7.97;;;3.60;;
21862;SDS011;11096;51.338;12.524;2023-02-28T08:06:36;8.57;;;3.17;;
21862;SDS011;11096;51.338;12.524;2023-02-28T08:09:02;7.70;;;3.65;;
21862;SDS011;11096;51.338;12.524;2023-02-28T08:11:27;6.13;;;2.95;;
21862;SDS011;11096;51.338;12.524;2023-02-28T08:13:54;8.95;;;3.78;;
21862;SDS011;11096;51.338;12.524;2023-02-28T08:16:20;6.20;;;3.67;;
21862;SDS011;11096;51.338;12.524;2023-02-28T08:18:47;6.82;;;2.92;;
21862;SDS011;11096;51.338;12.524;2023-02-28T08:21:16;8.27;;;3.88;;
21862;SDS011;11096;51.338;12.524;2023-02-28T08:23:42;5.13;;;2.95;;
21862;SDS011;11096;51.338;12.524;2023-02-28T08:26:08;5.43;;;2.97;;
21862;SDS011;11096;51.338;12.524;2023-02-28T08:28:33;5.68;;;3.40;;
21862;SDS011;11096;51.338;12.524;2023-02-28T08:30:58;7.40;;;3.22;;
21862;SDS011;11096;51.338;12.524;2023-02-28T08:33:24;5.15;;;3.17;;
21862;SDS011;11096;51.338;12.524;2023-02-28T08:35:52;5.10;;;3.05;;
21862;SDS011;11096;51.338;12.524;2023-02-28T08:38:19;6.18;;;2.92;;
21862;SDS011;11096;51.338;12.524;2023-02-28T08:40:44;6.07;;;3.17;;
21862;SDS011;11096;51.338;12.524;2023-02-28T08:43:09;4.55;;;2.97;;
21862;SDS011;11096;51.338;12.524;2023-02-28T08:45:35;8.18;;;2.70;;
21862;SDS011;11096;51.338;12.524;2023-02-28T08:48:00;4.10;;;2.25;;
21862;SDS011;11096;51.338;12.524;2023-02-28T08:50:26;3.85;;;2.85;;
21862;SDS011;11096;51.338;12.524;2023-02-28T08:52:51;6.18;;;2.90;;
21862;SDS011;11096;51.338;12.524;2023-02-28T08:55:16;10.63;;;3.15;;
21862;SDS011;11096;51.338;12.524;2023-02-28T08:57:42;3.97;;;2.95;;
21862;SDS011;11096;51.338;12.524;2023-02-28T09:00:07;4.28;;;2.63;;
21862;SDS011;11096;51.338;12.524;2023-02-28T09:02:33;7.18;;;2.80;;
21862;SDS011;11096;51.338;12.524;2023-02-28T09:04:58;7.30;;;2.67;;
21862;SDS011;11096;51.338;12.524;2023-02-28T09:07:24;7.25;;;2.80;;
21862;SDS011;11096;51.338;12.524;2023-02-28T09:09:50;5.85;;;2.65;;
21862;SDS011;11096;51.338;12.524;2023-02-28T09:12:25;6.22;;;3.28;;
21862;SDS011;11096;51.338;12.524;2023-02-28T09:14:52;5.97;;;2.88;;
21862;SDS011;11096;51.338;12.524;2023-02-28T09:17:18;5.05;;;3.15;;
21862;SDS011;11096;51.338;12.524;2023-02-28T09:19:44;5.63;;;3.25;;
21862;SDS011;11096;51.338;12.524;2023-02-28T09:22:10;5.97;;;2.80;;
21862;SDS011;11096;51.338;12.524;2023-02-28T09:24:36;6.75;;;3.25;;
21862;SDS011;11096;51.338;12.524;2023-02-28T09:27:02;6.63;;;2.95;;
21862;SDS011;11096;51.338;12.524;2023-02-28T09:29:28;7.22;;;3.00;;
21862;SDS011;11096;51.338;12.524;2023-02-28T09:31:53;5.25;;;2.83;;
21862;SDS011;11096;51.338;12.524;2023-02-28T09:34:19;4.90;;;2.65;;
21862;SDS011;11096;51.338;12.524;2023-02-28T09:36:44;4.70;;;2.60;;
21862;SDS011;11096;51.338;12.524;2023-02-28T09:39:10;5.55;;;2.92;;
21862;SDS011;11096;51.338;12.524;2023-02-28T09:41:38;4.35;;;2.70;;
21862;SDS011;11096;51.338;12.524;2023-02-28T09:44:13;5.68;;;2.67;;
21862;SDS011;11096;51.338;12.524;2023-02-28T09:46:44;3.88;;;2.60;;
21862;SDS011;11096;51.338;12.524;2023-02-28T09:49:18;5.13;;;2.90;;
21862;SDS011;11096;51.338;12.524;2023-02-28T09:52:04;3.45;;;2.72;;
21862;SDS011;11096;51.338;12.524;2023-02-28T09:54:35;5.00;;;2.83;;
21862;SDS011;11096;51.338;12.524;2023-02-28T09:57:04;4.95;;;2.70;;
21862;SDS011;11096;51.338;12.524;2023-02-28T10:05:19;4.10;;;2.60;;
21862;SDS011;11096;51.338;12.524;2023-02-28T10:07:50;5.13;;;2.50;;
21862;SDS011;11096;51.338;12.524;2023-02-28T10:13:25;4.00;;;2.33;;
21862;SDS011;11096;51.338;12.524;2023-02-28T10:16:02;6.78;;;2.53;;
21862;SDS011;11096;51.338;12.524;2023-02-28T10:18:57;4.88;;;2.80;;
21862;SDS011;11096;51.338;12.524;2023-02-28T10:21:27;2.95;;;2.45;;
21862;SDS011;11096;51.338;12.524;2023-02-28T10:24:19;4.28;;;2.38;;
21862;SDS011;11096;51.338;12.524;2023-02-28T10:26:55;2.92;;;2.47;;
21862;SDS011;11096;51.338;12.524;2023-02-28T10:29:25;4.55;;;2.58;;
21862;SDS011;11096;51.338;12.524;2023-02-28T10:31:51;4.47;;;2.60;;
21862;SDS011;11096;51.338;12.524;2023-02-28T10:34:17;4.72;;;2.58;;
21862;SDS011;11096;51.338;12.524;2023-02-28T10:36:42;2.92;;;2.30;;
21862;SDS011;11096;51.338;12.524;2023-02-28T10:41:59;3.63;;;2.55;;
21862;SDS011;11096;51.338;12.524;2023-02-28T10:44:25;4.05;;;2.15;;
21862;SDS011;11096;51.338;12.524;2023-02-28T10:46:50;3.78;;;2.70;;
21862;SDS011;11096;51.338;12.524;2023-02-28T10:49:23;5.35;;;2.88;;
21862;SDS011;11096;51.338;12.524;2023-02-28T10:51:54;4.03;;;2.78;;
21862;SDS011;11096;51.338;12.524;2023-02-28T11:00:05;4.40;;;2.85;;
21862;SDS011;11096;51.338;12.524;2023-02-28T11:02:44;5.57;;;2.95;;
21862;SDS011;11096;51.338;12.524;2023-02-28T11:08:11;3.17;;;2.53;;
21862;SDS011;11096;51.338;12.524;2023-02-28T11:10:39;5.35;;;3.20;;
21862;SDS011;11096;51.338;12.524;2023-02-28T11:13:17;4.93;;;3.03;;
21862;SDS011;11096;51.338;12.524;2023-02-28T11:15:53;6.53;;;3.15;;
21862;SDS011;11096;51.338;12.524;2023-02-28T11:19:04;5.15;;;2.97;;
21862;SDS011;11096;51.338;12.524;2023-02-28T11:21:18;5.82;;;3.03;;
21862;SDS011;11096;51.338;12.524;2023-02-28T11:23:51;5.65;;;3.10;;
21862;SDS011;11096;51.338;12.524;2023-02-28T11:26:43;5.93;;;3.20;;
21862;SDS011;11096;51.338;12.524;2023-02-28T11:29:18;5.07;;;3.20;;
21862;SDS011;11096;51.338;12.524;2023-02-28T11:32:02;5.25;;;3.70;;
21862;SDS011;11096;51.338;12.524;2023-02-28T11:34:35;4.75;;;2.92;;
21862;SDS011;11096;51.338;12.524;2023-02-28T11:37:02;4.80;;;3.17;;
21862;SDS011;11096;51.338;12.524;2023-02-28T11:39:30;5.03;;;3.20;;
21862;SDS011;11096;51.338;12.524;2023-02-28T11:44:51;5.65;;;2.97;;
21862;SDS011;11096;51.338;12.524;2023-02-28T11:47:45;5.70;;;3.35;;
21862;SDS011;11096;51.338;12.524;2023-02-28T11:50:26;7.10;;;3.53;;
21862;SDS011;11096;51.338;12.524;2023-02-28T11:58:14;5.78;;;3.42;;
21862;SDS011;11096;51.338;12.524;2023-02-28T12:00:52;4.95;;;3.08;;
21862;SDS011;11096;51.338;12.524;2023-02-28T12:03:26;5.00;;;3.22;;
21862;SDS011;11096;51.338;12.524;2023-02-28T12:11:19;5.97;;;3.70;;
21862;SDS011;11096;51.338;12.524;2023-02-28T12:19:48;6.95;;;4.50;;
21862;SDS011;11096;51.338;12.524;2023-02-28T12:25:02;6.13;;;3.83;;
21862;SDS011;11096;51.338;12.524;2023-02-28T12:27:41;7.57;;;4.65;;
21862;SDS011;11096;51.338;12.524;2023-02-28T12:30:13;5.95;;;3.63;;
21862;SDS011;11096;51.338;12.524;2023-02-28T12:32:44;7.55;;;4.43;;
21862;SDS011;11096;51.338;12.524;2023-02-28T12:35:14;6.40;;;4.15;;
21862;SDS011;11096;51.338;12.524;2023-02-28T12:43:12;6.68;;;4.05;;
21862;SDS011;11096;51.338;12.524;2023-02-28T12:45:42;7.45;;;4.40;;
21862;SDS011;11096;51.338;12.524;2023-02-28T12:48:10;5.70;;;4.15;;
21862;SDS011;11096;51.338;12.524;2023-02-28T12:50:47;7.45;;;4.30;;
21862;SDS011;11096;51.338;12.524;2023-02-28T12:53:15;7.35;;;4.15;;
21862;SDS011;11096;51.338;12.524;2023-02-28T12:58:58;7.25;;;4.25;;
21862;SDS011;11096;51.338;12.524;2023-02-28T13:10:12;7.72;;;4.25;;
21862;SDS011;11096;51.338;12.524;2023-02-28T13:12:46;6.55;;;4.10;;
21862;SDS011;11096;51.338;12.524;2023-02-28T13:17:50;6.00;;;4.40;;
21862;SDS011;11096;51.338;12.524;2023-02-28T13:20:21;7.03;;;4.32;;
21862;SDS011;11096;51.338;12.524;2023-02-28T13:22:51;6.88;;;4.45;;
21862;SDS011;11096;51.338;12.524;2023-02-28T13:27:46;5.60;;;4.43;;
21862;SDS011;11096;51.338;12.524;2023-02-28T13:35:44;7.97;;;4.65;;
21862;SDS011;11096;51.338;12.524;2023-02-28T13:38:24;5.82;;;3.83;;
21862;SDS011;11096;51.338;12.524;2023-02-28T14:01:56;6.88;;;4.43;;
21862;SDS011;11096;51.338;12.524;2023-02-28T14:04:49;6.93;;;4.53;;
21862;SDS011;11096;51.338;12.524;2023-02-28T14:07:26;7.35;;;4.43;;
21862;SDS011;11096;51.338;12.524;2023-02-28T14:10:06;7.65;;;4.40;;
21862;SDS011;11096;51.338;12.524;2023-02-28T14:15:30;7.40;;;4.72;;
21862;SDS011;11096;51.338;12.524;2023-02-28T14:29:09;9.10;;;5.38;;
21862;SDS011;11096;51.338;12.524;2023-02-28T14:32:01;8.75;;;5.18;;
21862;SDS011;11096;51.338;12.524;2023-02-28T14:34:50;9.90;;;5.20;;
21862;SDS011;11096;51.338;12.524;2023-02-28T14:37:24;8.60;;;5.28;;
21862;SDS011;11096;51.338;12.524;2023-02-28T14:39:54;9.80;;;5.18;;
21862;SDS011;11096;51.338;12.524;2023-02-28T14:42:34;7.95;;;4.60;;
21862;SDS011;11096;51.338;12.524;2023-02-28T14:45:03;9.55;;;5.38;;
21862;SDS011;11096;51.338;12.524;2023-02-28T14:47:32;8.45;;;4.88;;
21862;SDS011;11096;51.338;12.524;2023-02-28T14:50:00;8.20;;;5.20;;
21862;SDS011;11096;51.338;12.524;2023-02-28T14:52:29;10.05;;;5.07;;
21862;SDS011;11096;51.338;12.524;2023-02-28T14:55:03;10.75;;;4.97;;
21862;SDS011;11096;51.338;12.524;2023-02-28T14:57:39;8.57;;;5.18;;
21862;SDS011;11096;51.338;12.524;2023-02-28T15:02:43;11.85;;;5.78;;
21862;SDS011;11096;51.338;12.524;2023-02-28T15:07:34;9.35;;;5.50;;
21862;SDS011;11096;51.338;12.524;2023-02-28T15:10:07;8.82;;;5.65;;
21862;SDS011;11096;51.338;12.524;2023-02-28T15:12:35;8.02;;;5.20;;
21862;SDS011;11096;51.338;12.524;2023-02-28T15:15:02;9.13;;;5.03;;
21862;SDS011;11096;51.338;12.524;2023-02-28T15:17:28;9.57;;;5.28;;
21862;SDS011;11096;51.338;12.524;2023-02-28T15:19:54;11.48;;;5.38;;
21862;SDS011;11096;51.338;12.524;2023-02-28T15:22:27;8.60;;;5.38;;
21862;SDS011;11096;51.338;12.524;2023-02-28T15:24:58;6.93;;;4.93;;
21862;SDS011;11096;51.338;12.524;2023-02-28T15:27:25;8.82;;;5.38;;
21862;SDS011;11096;51.338;12.524;2023-02-28T15:29:57;13.43;;;5.40;;
21862;SDS011;11096;51.338;12.524;2023-02-28T15:32:30;11.00;;;5.50;;
21862;SDS011;11096;51.338;12.524;2023-02-28T15:34:58;8.07;;;5.38;;
21862;SDS011;11096;51.338;12.524;2023-02-28T15:37:48;8.32;;;5.35;;
21862;SDS011;11096;51.338;12.524;2023-02-28T15:42:59;8.68;;;5.30;;
21862;SDS011;11096;51.338;12.524;2023-02-28T15:48:04;11.15;;;5.68;;
21862;SDS011;11096;51.338;12.524;2023-02-28T15:50:30;8.40;;;5.55;;
21862;SDS011;11096;51.338;12.524;2023-02-28T15:52:56;11.02;;;5.53;;
21862;SDS011;11096;51.338;12.524;2023-02-28T15:55:23;9.93;;;5.22;;
21862;SDS011;11096;51.338;12.524;2023-02-28T15:57:52;10.30;;;5.50;;
21862;SDS011;11096;51.338;12.524;2023-02-28T16:00:24;10.77;;;5.53;;
21862;SDS011;11096;51.338;12.524;2023-02-28T16:02:51;8.23;;;5.03;;
21862;SDS011;11096;51.338;12.524;2023-02-28T16:07:42;7.50;;;5.13;;
21862;SDS011;11096;51.338;12.524;2023-02-28T16:10:09;7.22;;;5.10;;
21862;SDS011;11096;51.338;12.524;2023-02-28T16:12:37;9.90;;;5.65;;
21862;SDS011;11096;51.338;12.524;2023-02-28T16:15:08;12.40;;;5.85;;
21862;SDS011;11096;51.338;12.524;2023-02-28T16:17:40;12.40;;;5.95;;
21862;SDS011;11096;51.338;12.524;2023-02-28T16:20:11;12.65;;;6.57;;
21862;SDS011;11096;51.338;12.524;2023-02-28T16:22:38;8.82;;;5.68;;
21862;SDS011;11096;51.338;12.524;2023-02-28T16:25:04;11.32;;;5.25;;
21862;SDS011;11096;51.338;12.524;2023-02-28T16:27:34;8.73;;;5.63;;
21862;SDS011;11096;51.338;12.524;2023-02-28T16:30:03;10.25;;;5.45;;
21862;SDS011;11096;51.338;12.524;2023-02-28T16:32:30;13.50;;;5.32;;
21862;SDS011;11096;51.338;12.524;2023-02-28T16:34:59;11.18;;;6.13;;
21862;SDS011;11096;51.338;12.524;2023-02-28T16:37:26;10.05;;;5.97;;
21862;SDS011;11096;51.338;12.524;2023-02-28T16:39:52;14.15;;;5.78;;
21862;SDS011;11096;51.338;12.524;2023-02-28T16:42:24;11.20;;;6.13;;
21862;SDS011;11096;51.338;12.524;2023-02-28T16:44:52;10.73;;;6.05;;
21862;SDS011;11096;51.338;12.524;2023-02-28T16:47:18;12.68;;;5.60;;
21862;SDS011;11096;51.338;12.524;2023-02-28T16:49:43;8.00;;;5.10;;
21862;SDS011;11096;51.338;12.524;2023-02-28T16:52:09;9.85;;;5.40;;
21862;SDS011;11096;51.338;12.524;2023-02-28T16:54:36;11.85;;;5.72;;
21862;SDS011;11096;51.338;12.524;2023-02-28T16:57:02;10.18;;;5.40;;
21862;SDS011;11096;51.338;12.524;2023-02-28T16:59:28;10.23;;;5.72;;
21862;SDS011;11096;51.338;12.524;2023-02-28T17:01:54;12.07;;;5.55;;
21862;SDS011;11096;51.338;12.524;2023-02-28T17:04:22;12.50;;;5.95;;
21862;SDS011;11096;51.338;12.524;2023-02-28T17:06:48;9.15;;;5.30;;
21862;SDS011;11096;51.338;12.524;2023-02-28T17:09:19;9.82;;;5.72;;
21862;SDS011;11096;51.338;12.524;2023-02-28T17:11:46;12.60;;;5.72;;
21862;SDS011;11096;51.338;12.524;2023-02-28T17:14:12;11.43;;;5.47;;